createdAt,value
2022-11-30T00:00:01.539Z,95676
2022-11-30T00:01:11.274Z,95678
2022-11-30T00:02:19.158Z,95678
2022-11-30T00:03:28.805Z,95678
2022-11-30T00:04:38.608Z,95677
2022-11-30T00:05:46.462Z,95674
2022-11-30T00:06:55.150Z,95678
2022-11-30T00:08:05.040Z,95674
2022-11-30T00:09:14.793Z,95679
2022-11-30T00:10:24.655Z,95677
2022-11-30T00:11:32.362Z,95683
2022-11-30T00:12:42.122Z,95675
2022-11-30T00:13:51.960Z,95680
2022-11-30T00:15:00.863Z,95677
2022-11-30T00:16:10.690Z,95676
2022-11-30T00:17:19.519Z,95675
2022-11-30T00:18:28.187Z,95677
2022-11-30T00:19:37.968Z,95677
2022-11-30T00:20:47.662Z,95679
2022-11-30T00:21:56.618Z,95681
2022-11-30T00:23:06.346Z,95678
2022-11-30T00:24:14.093Z,95682
2022-11-30T00:25:22.943Z,95680
2022-11-30T00:26:31.772Z,95678
2022-11-30T00:27:40.730Z,95682
2022-11-30T00:28:50.412Z,95681
2022-11-30T00:29:59.123Z,95684
2022-11-30T00:31:07.975Z,95689
2022-11-30T00:32:17.617Z,95686
2022-11-30T00:33:26.407Z,95684
2022-11-30T00:34:36.144Z,95688
2022-11-30T00:35:45.961Z,95684
2022-11-30T00:36:55.707Z,95684
2022-11-30T00:38:05.606Z,95683
2022-11-30T00:39:14.301Z,95687
2022-11-30T00:40:23.149Z,95690
2022-11-30T00:41:32.940Z,95686
2022-11-30T00:42:40.925Z,95687
2022-11-30T00:43:49.632Z,95687
2022-11-30T00:44:59.455Z,95692
2022-11-30T00:46:08.348Z,95694
2022-11-30T00:47:17.992Z,95689
2022-11-30T00:48:26.772Z,95690
2022-11-30T00:49:36.433Z,95688
2022-11-30T00:50:46.300Z,95686
2022-11-30T00:51:54.060Z,95686
2022-11-30T00:53:02.910Z,95689
2022-11-30T00:54:11.710Z,95686
2022-11-30T00:55:20.653Z,95690
2022-11-30T00:56:30.517Z,95689
2022-11-30T00:57:40.222Z,95695
2022-11-30T00:58:49.092Z,95691
2022-11-30T00:59:58.877Z,95696
2022-11-30T01:01:07.648Z,95693
2022-11-30T01:02:16.362Z,95698
2022-11-30T01:03:25.135Z,95697
2022-11-30T01:04:33.997Z,95697
2022-11-30T01:05:43.857Z,95699
2022-11-30T01:06:52.637Z,95701
2022-11-30T01:08:01.418Z,95697
2022-11-30T01:09:11.178Z,95699
2022-11-30T01:10:19.013Z,95701
2022-11-30T01:11:28.833Z,95701
2022-11-30T01:12:38.609Z,95700
2022-11-30T01:13:47.437Z,95699
2022-11-30T01:14:56.267Z,95697
2022-11-30T01:16:05.114Z,95699
2022-11-30T01:17:14.912Z,95697
2022-11-30T01:18:24.633Z,95699
2022-11-30T01:19:33.436Z,95700
2022-11-30T01:20:43.359Z,95703
2022-11-30T01:21:51.126Z,95698
2022-11-30T01:23:00.891Z,95699
2022-11-30T01:24:09.799Z,95696
2022-11-30T01:25:19.587Z,95698
2022-11-30T01:26:29.352Z,95700
2022-11-30T01:27:37.150Z,95696
2022-11-30T01:28:46.834Z,95700
2022-11-30T01:29:56.634Z,95706
2022-11-30T01:31:04.466Z,95705
2022-11-30T01:32:13.202Z,95700
2022-11-30T01:33:22.979Z,95707
2022-11-30T01:34:31.732Z,95709
2022-11-30T01:35:41.603Z,95706
2022-11-30T01:36:50.296Z,95710
2022-11-30T01:38:00.186Z,95707
2022-11-30T01:39:09.957Z,95704
2022-11-30T01:40:18.772Z,95705
2022-11-30T01:41:27.621Z,95703
2022-11-30T01:42:36.426Z,95702
2022-11-30T01:43:46.296Z,95707
2022-11-30T01:44:56.172Z,95701
2022-11-30T01:46:05.088Z,95702
2022-11-30T01:47:13.966Z,95701
2022-11-30T01:48:23.716Z,95698
2022-11-30T01:49:33.667Z,95698
2022-11-30T01:50:42.496Z,95700
2022-11-30T01:51:51.295Z,95694
2022-11-30T01:53:00.312Z,95697
2022-11-30T01:54:10.166Z,95698
2022-11-30T01:55:19.081Z,95698
2022-11-30T01:56:27.892Z,95695
2022-11-30T01:57:37.620Z,95699
2022-11-30T01:58:46.497Z,95691
2022-11-30T01:59:56.356Z,95699
2022-11-30T02:01:05.373Z,95697
2022-11-30T02:02:15.122Z,95699
2022-11-30T02:03:24.946Z,95695
2022-11-30T02:04:33.710Z,95696
2022-11-30T02:05:43.630Z,95699
2022-11-30T02:06:53.596Z,95699
2022-11-30T02:08:02.541Z,95698
2022-11-30T02:09:12.123Z,95697
2022-11-30T02:10:21.992Z,95696
2022-11-30T02:11:30.711Z,95694
2022-11-30T02:12:40.770Z,95691
2022-11-30T02:13:49.597Z,95693
2022-11-30T02:14:58.523Z,95692
2022-11-30T02:16:08.464Z,95689
2022-11-30T02:17:18.267Z,95693
2022-11-30T02:18:27.112Z,95692
2022-11-30T02:19:37.123Z,95688
2022-11-30T02:20:47.122Z,95691
2022-11-30T02:21:57.139Z,95686
2022-11-30T02:23:06.878Z,95692
2022-11-30T02:24:15.680Z,95688
2022-11-30T02:25:25.526Z,95694
2022-11-30T02:26:34.390Z,95692
2022-11-30T02:27:43.335Z,95695
2022-11-30T02:28:53.128Z,95697
2022-11-30T02:30:01.980Z,95698
2022-11-30T02:31:11.877Z,95701
2022-11-30T02:32:20.581Z,95703
2022-11-30T02:33:29.303Z,95700
2022-11-30T02:34:39.121Z,95706
2022-11-30T02:35:50.315Z,95704
2022-11-30T02:36:56.799Z,95708
2022-11-30T02:38:05.491Z,95710
2022-11-30T02:39:14.324Z,95706
2022-11-30T02:40:24.224Z,95709
2022-11-30T02:41:37.735Z,95706
2022-11-30T02:42:42.861Z,95712
2022-11-30T02:43:52.637Z,95714
2022-11-30T02:45:00.464Z,95715
2022-11-30T02:46:10.297Z,95714
2022-11-30T02:47:19.051Z,95713
2022-11-30T02:48:28.904Z,95713
2022-11-30T02:49:38.741Z,95715
2022-11-30T02:50:48.482Z,95716
2022-11-30T02:51:57.278Z,95720
2022-11-30T02:53:07.200Z,95722
2022-11-30T02:54:16.007Z,95716
2022-11-30T02:55:24.988Z,95717
2022-11-30T02:56:34.741Z,95713
2022-11-30T02:57:44.531Z,95711
2022-11-30T02:58:54.290Z,95711
2022-11-30T03:00:03.099Z,95704
2022-11-30T03:01:12.916Z,95707
2022-11-30T03:02:22.674Z,95713
2022-11-30T03:03:31.410Z,95714
2022-11-30T03:04:40.368Z,95713
2022-11-30T03:05:49.139Z,95714
2022-11-30T03:06:58.973Z,95719
2022-11-30T03:08:08.869Z,95714
2022-11-30T03:09:17.582Z,95721
2022-11-30T03:10:26.635Z,95723
2022-11-30T03:11:35.477Z,95716
2022-11-30T03:12:44.156Z,95718
2022-11-30T03:13:53.945Z,95718
2022-11-30T03:15:01.738Z,95722
2022-11-30T03:16:11.714Z,95724
2022-11-30T03:17:22.606Z,95722
2022-11-30T03:18:32.528Z,95724
2022-11-30T03:19:42.413Z,95728
2022-11-30T03:20:51.264Z,95725
2022-11-30T03:22:00.146Z,95729
2022-11-30T03:23:10.051Z,95731
2022-11-30T03:24:18.891Z,95728
2022-11-30T03:25:27.653Z,95731
2022-11-30T03:26:37.384Z,95726
2022-11-30T03:27:46.166Z,95730
2022-11-30T03:28:55.790Z,95731
2022-11-30T03:30:03.468Z,95729
2022-11-30T03:31:13.347Z,95728
2022-11-30T03:32:23.042Z,95724
2022-11-30T03:33:30.958Z,95729
2022-11-30T03:34:39.698Z,95728
2022-11-30T03:35:49.706Z,95731
2022-11-30T03:36:58.432Z,95727
2022-11-30T03:38:08.187Z,95727
2022-11-30T03:39:16.187Z,95723
2022-11-30T03:40:25.917Z,95732
2022-11-30T03:41:35.692Z,95729
2022-11-30T03:42:44.474Z,95727
2022-11-30T03:43:54.186Z,95732
2022-11-30T03:45:02.992Z,95728
2022-11-30T03:46:11.849Z,95734
2022-11-30T03:47:21.604Z,95733
2022-11-30T03:48:30.430Z,95740
2022-11-30T03:49:40.246Z,95736
2022-11-30T03:50:50.189Z,95736
2022-11-30T03:51:57.900Z,95735
2022-11-30T03:53:07.657Z,95736
2022-11-30T03:54:17.530Z,95733
2022-11-30T03:55:27.391Z,95732
2022-11-30T03:56:36.216Z,95731
2022-11-30T03:57:45.105Z,95739
2022-11-30T03:58:54.952Z,95740
2022-11-30T04:00:04.847Z,95739
2022-11-30T04:01:13.732Z,95738
2022-11-30T04:02:22.650Z,95734
2022-11-30T04:03:31.509Z,95736
2022-11-30T04:04:41.330Z,95739
2022-11-30T04:05:51.145Z,95738
2022-11-30T04:06:58.881Z,95740
2022-11-30T04:08:08.960Z,95738
2022-11-30T04:09:18.932Z,95739
2022-11-30T04:10:27.718Z,95739
2022-11-30T04:11:36.634Z,95735
2022-11-30T04:12:45.520Z,95738
2022-11-30T04:13:54.326Z,95742
2022-11-30T04:15:04.136Z,95739
2022-11-30T04:16:13.107Z,95739
2022-11-30T04:17:21.776Z,95736
2022-11-30T04:18:31.880Z,95733
2022-11-30T04:19:39.748Z,95734
2022-11-30T04:20:49.613Z,95727
2022-11-30T04:21:58.398Z,95726
2022-11-30T04:23:07.156Z,95728
2022-11-30T04:24:17.138Z,95724
2022-11-30T04:25:25.009Z,95726
2022-11-30T04:26:33.908Z,95724
2022-11-30T04:27:43.720Z,95728
2022-11-30T04:28:52.501Z,95727
2022-11-30T04:30:02.356Z,95722
2022-11-30T04:31:12.258Z,95724
2022-11-30T04:32:20.886Z,95724
2022-11-30T04:33:30.688Z,95728
2022-11-30T04:34:39.492Z,95727
2022-11-30T04:35:49.302Z,95724
2022-11-30T04:37:00.520Z,95732
2022-11-30T04:38:07.042Z,95733
2022-11-30T04:39:16.857Z,95732
2022-11-30T04:40:26.791Z,95734
2022-11-30T04:41:35.689Z,95730
2022-11-30T04:42:45.657Z,95730
2022-11-30T04:43:54.492Z,95731
2022-11-30T04:45:04.269Z,95728
2022-11-30T04:46:14.237Z,95735
2022-11-30T04:47:23.040Z,95735
2022-11-30T04:48:30.848Z,95732
2022-11-30T04:49:40.885Z,95733
2022-11-30T04:50:49.709Z,95733
2022-11-30T04:51:59.674Z,95734
2022-11-30T04:53:09.509Z,95735
2022-11-30T04:54:18.386Z,95735
2022-11-30T04:55:28.206Z,95735
2022-11-30T04:56:35.985Z,95735
2022-11-30T04:57:44.742Z,95736
2022-11-30T04:58:53.516Z,95735
2022-11-30T05:00:03.234Z,95737
2022-11-30T05:01:13.074Z,95740
2022-11-30T05:02:22.217Z,95744
2022-11-30T05:03:32.002Z,95745
2022-11-30T05:04:41.700Z,95738
2022-11-30T05:05:49.694Z,95743
2022-11-30T05:06:59.559Z,95742
2022-11-30T05:08:08.355Z,95743
2022-11-30T05:09:17.145Z,95738
2022-11-30T05:10:27.010Z,95740
2022-11-30T05:11:37.066Z,95744
2022-11-30T05:12:46.983Z,95748
2022-11-30T05:13:55.720Z,95746
2022-11-30T05:15:04.532Z,95750
2022-11-30T05:16:14.529Z,95746
2022-11-30T05:17:22.201Z,95745
2022-11-30T05:18:31.037Z,95750
2022-11-30T05:19:39.940Z,95747
2022-11-30T05:20:49.962Z,95752
2022-11-30T05:21:59.785Z,95751
2022-11-30T05:23:07.730Z,95752
2022-11-30T05:24:17.567Z,95748
2022-11-30T05:25:27.380Z,95749
2022-11-30T05:26:36.211Z,95754
2022-11-30T05:27:44.988Z,95750
2022-11-30T05:28:54.794Z,95753
2022-11-30T05:30:03.915Z,95755
2022-11-30T05:31:13.754Z,95756
2022-11-30T05:32:21.456Z,95759
2022-11-30T05:33:31.277Z,95759
2022-11-30T05:34:50.427Z,95760
2022-11-30T05:35:52.173Z,95762
2022-11-30T05:37:02.047Z,95761
2022-11-30T05:38:10.942Z,95763
2022-11-30T05:39:19.801Z,95769
2022-11-30T05:40:29.649Z,95769
2022-11-30T05:41:38.677Z,95763
2022-11-30T05:42:47.494Z,95769
2022-11-30T05:43:57.500Z,95766
2022-11-30T05:45:05.392Z,95771
2022-11-30T05:46:14.579Z,95770
2022-11-30T05:47:24.233Z,95769
2022-11-30T05:48:34.090Z,95768
2022-11-30T05:49:43.842Z,95770
2022-11-30T05:50:52.723Z,95773
2022-11-30T05:52:02.565Z,95768
2022-11-30T05:53:12.425Z,95775
2022-11-30T05:54:23.201Z,95771
2022-11-30T05:55:33.014Z,95771
2022-11-30T05:56:42.745Z,95768
2022-11-30T05:57:53.507Z,95764
2022-11-30T05:59:03.252Z,95773
2022-11-30T06:00:12.006Z,95772
2022-11-30T06:01:20.758Z,95772
2022-11-30T06:02:30.645Z,95772
2022-11-30T06:03:40.244Z,95775
2022-11-30T06:04:49.141Z,95776
2022-11-30T06:05:57.592Z,95775
2022-11-30T06:07:06.316Z,95781
2022-11-30T06:08:16.062Z,95776
2022-11-30T06:09:24.809Z,95778
2022-11-30T06:10:34.474Z,95778
2022-11-30T06:11:44.145Z,95778
2022-11-30T06:12:52.821Z,95774
2022-11-30T06:14:02.488Z,95773
2022-11-30T06:15:11.199Z,95773
2022-11-30T06:16:19.896Z,95777
2022-11-30T06:17:29.572Z,95773
2022-11-30T06:18:37.229Z,95774
2022-11-30T06:19:45.892Z,95775
2022-11-30T06:20:55.609Z,95770
2022-11-30T06:22:04.300Z,95772
2022-11-30T06:23:13.997Z,95774
2022-11-30T06:24:23.652Z,95771
2022-11-30T06:25:33.323Z,95771
2022-11-30T06:26:43.020Z,95773
2022-11-30T06:27:52.681Z,95770
2022-11-30T06:29:02.351Z,95778
2022-11-30T06:30:12.019Z,95772
2022-11-30T06:31:19.800Z,95774
2022-11-30T06:32:29.400Z,95773
2022-11-30T06:33:38.076Z,95774
2022-11-30T06:34:48.047Z,95775
2022-11-30T06:35:57.429Z,95772
2022-11-30T06:37:06.102Z,95773
2022-11-30T06:38:14.772Z,95771
2022-11-30T06:39:43.277Z,95769
2022-11-30T06:40:35.065Z,95767
2022-11-30T06:41:43.753Z,95766
2022-11-30T06:42:53.402Z,95767
2022-11-30T06:44:03.100Z,95769
2022-11-30T06:45:12.781Z,95770
2022-11-30T06:46:21.439Z,95770
2022-11-30T06:47:29.096Z,95769
2022-11-30T06:48:38.766Z,95776
2022-11-30T06:49:46.572Z,95777
2022-11-30T06:50:56.252Z,95781
2022-11-30T06:52:04.914Z,95781
2022-11-30T06:53:13.568Z,95783
2022-11-30T06:54:23.228Z,95783
2022-11-30T06:55:31.944Z,95787
2022-11-30T06:56:41.570Z,95787
2022-11-30T06:57:51.247Z,95786
2022-11-30T06:58:58.899Z,95786
2022-11-30T07:00:07.586Z,95785
2022-11-30T07:01:16.362Z,95788
2022-11-30T07:02:24.955Z,95790
2022-11-30T07:03:34.614Z,95789
2022-11-30T07:04:43.285Z,95789
2022-11-30T07:05:52.960Z,95789
2022-11-30T07:07:00.649Z,95791
2022-11-30T07:08:09.323Z,95786
2022-11-30T07:09:18.992Z,95787
2022-11-30T07:10:28.711Z,95791
2022-11-30T07:11:38.360Z,95786
2022-11-30T07:12:48.009Z,95787
2022-11-30T07:13:56.668Z,95790
2022-11-30T07:15:06.334Z,95793
2022-11-30T07:16:14.034Z,95794
2022-11-30T07:17:22.670Z,95793
2022-11-30T07:18:32.811Z,95793
2022-11-30T07:19:40.155Z,95790
2022-11-30T07:20:48.840Z,95794
2022-11-30T07:21:58.509Z,95795
2022-11-30T07:23:07.190Z,95794
2022-11-30T07:24:16.900Z,95797
2022-11-30T07:25:25.620Z,95800
2022-11-30T07:26:34.432Z,95798
2022-11-30T07:27:44.123Z,95801
2022-11-30T07:28:51.766Z,95798
2022-11-30T07:30:01.465Z,95797
2022-11-30T07:31:14.799Z,95791
2022-11-30T07:32:18.823Z,95795
2022-11-30T07:33:28.492Z,95797
2022-11-30T07:34:36.187Z,95797
2022-11-30T07:35:45.874Z,95801
2022-11-30T07:36:55.559Z,95796
2022-11-30T07:38:08.289Z,95802
2022-11-30T07:39:11.854Z,95801
2022-11-30T07:40:20.550Z,95805
2022-11-30T07:41:30.229Z,95803
2022-11-30T07:42:39.895Z,95799
2022-11-30T07:43:47.579Z,95798
2022-11-30T07:44:59.080Z,95796
2022-11-30T07:46:06.922Z,95789
2022-11-30T07:47:15.641Z,95789
2022-11-30T07:48:24.332Z,95787
2022-11-30T07:49:33.031Z,95788
2022-11-30T07:50:42.744Z,95788
2022-11-30T07:51:52.405Z,95787
2022-11-30T07:53:02.419Z,95793
2022-11-30T07:54:11.080Z,95799
2022-11-30T07:55:20.753Z,95798
2022-11-30T07:56:28.412Z,95794
2022-11-30T07:57:38.109Z,95794
2022-11-30T07:58:46.805Z,95793
2022-11-30T07:59:55.477Z,95794
2022-11-30T08:01:05.226Z,95800
2022-11-30T08:02:12.900Z,95800
2022-11-30T08:03:22.461Z,95797
2022-11-30T08:04:33.194Z,95800
2022-11-30T08:05:42.002Z,95801
2022-11-30T08:06:50.664Z,95796
2022-11-30T08:07:59.389Z,95793
2022-11-30T08:09:08.008Z,95795
2022-11-30T08:10:18.676Z,95798
2022-11-30T08:11:26.332Z,95800
2022-11-30T08:12:35.028Z,95799
2022-11-30T08:13:44.700Z,95796
2022-11-30T08:15:18.588Z,95796
2022-11-30T08:16:04.055Z,95798
2022-11-30T08:17:13.689Z,95796
2022-11-30T08:18:22.351Z,95799
2022-11-30T08:19:32.024Z,95802
2022-11-30T08:20:43.327Z,95801
2022-11-30T08:21:50.471Z,95799
2022-11-30T08:23:00.145Z,95802
2022-11-30T08:24:08.858Z,95800
2022-11-30T08:25:17.469Z,95802
2022-11-30T08:26:26.145Z,95798
2022-11-30T08:27:34.842Z,95804
2022-11-30T08:28:44.511Z,95805
2022-11-30T08:29:52.191Z,95805
2022-11-30T08:31:00.917Z,95809
2022-11-30T08:32:10.572Z,95806
2022-11-30T08:33:18.225Z,95809
2022-11-30T08:34:26.899Z,95812
2022-11-30T08:35:35.580Z,95808
2022-11-30T08:36:47.163Z,95810
2022-11-30T08:37:54.898Z,95813
2022-11-30T08:39:02.573Z,95809
2022-11-30T08:40:12.241Z,95813
2022-11-30T08:41:21.912Z,95813
2022-11-30T08:42:29.587Z,95816
2022-11-30T08:43:38.252Z,95817
2022-11-30T08:44:46.951Z,95814
2022-11-30T08:45:57.313Z,95819
2022-11-30T08:47:05.340Z,95820
2022-11-30T08:48:13.089Z,95817
2022-11-30T08:49:24.077Z,95822
2022-11-30T08:50:32.368Z,95818
2022-11-30T08:52:15.239Z,95817
2022-11-30T08:52:51.663Z,95818
2022-11-30T08:54:01.347Z,95823
2022-11-30T08:55:09.998Z,95820
2022-11-30T08:56:19.821Z,95824
2022-11-30T08:57:28.470Z,95822
2022-11-30T08:58:37.145Z,95825
2022-11-30T08:59:46.792Z,95829
2022-11-30T09:00:54.450Z,95831
2022-11-30T09:02:04.149Z,95829
2022-11-30T09:03:13.821Z,95831
2022-11-30T09:04:23.508Z,95829
2022-11-30T09:05:33.149Z,95825
2022-11-30T09:06:42.816Z,95826
2022-11-30T09:07:52.574Z,95831
2022-11-30T09:09:01.184Z,95831
2022-11-30T09:10:10.844Z,95829
2022-11-30T09:11:20.519Z,95831
2022-11-30T09:12:29.201Z,95837
2022-11-30T09:13:38.877Z,95834
2022-11-30T09:14:52.512Z,95829
2022-11-30T09:15:58.249Z,95835
2022-11-30T09:17:07.868Z,95830
2022-11-30T09:18:17.553Z,95837
2022-11-30T09:19:27.257Z,95833
2022-11-30T09:20:36.907Z,95834
2022-11-30T09:21:51.467Z,95834
2022-11-30T09:22:55.220Z,95830
2022-11-30T09:24:03.888Z,95829
2022-11-30T09:25:13.691Z,95830
2022-11-30T09:26:22.374Z,95831
2022-11-30T09:27:31.029Z,95829
2022-11-30T09:28:39.886Z,95827
2022-11-30T09:29:49.480Z,95826
2022-11-30T09:30:58.169Z,95826
2022-11-30T09:32:06.842Z,95829
2022-11-30T09:33:16.493Z,95826
2022-11-30T09:34:25.220Z,95829
2022-11-30T09:35:34.906Z,95820
2022-11-30T09:36:43.580Z,95832
2022-11-30T09:37:52.232Z,95828
2022-11-30T09:39:01.904Z,95825
2022-11-30T09:40:09.616Z,95829
2022-11-30T09:41:19.301Z,95829
2022-11-30T09:42:29.007Z,95823
2022-11-30T09:43:37.690Z,95821
2022-11-30T09:44:47.553Z,95818
2022-11-30T09:45:56.051Z,95816
2022-11-30T09:47:05.705Z,95816
2022-11-30T09:48:15.406Z,95816
2022-11-30T09:49:24.088Z,95814
2022-11-30T09:50:32.757Z,95817
2022-11-30T09:51:42.451Z,95815
2022-11-30T09:52:52.122Z,95817
2022-11-30T09:54:01.811Z,95814
2022-11-30T09:55:09.479Z,95815
2022-11-30T09:56:19.124Z,95809
2022-11-30T09:57:28.803Z,95814
2022-11-30T09:58:37.520Z,95814
2022-11-30T09:59:47.348Z,95819
2022-11-30T10:00:55.884Z,95815
2022-11-30T10:02:05.677Z,95815
2022-11-30T10:03:15.363Z,95821
2022-11-30T10:04:23.881Z,95819
2022-11-30T10:05:32.572Z,95819
2022-11-30T10:06:42.248Z,95823
2022-11-30T10:07:51.050Z,95820
2022-11-30T10:08:59.613Z,95823
2022-11-30T10:10:30.736Z,95820
2022-11-30T10:11:18.960Z,95820
2022-11-30T10:12:28.657Z,95822
2022-11-30T10:13:37.337Z,95822
2022-11-30T10:14:46.282Z,95821
2022-11-30T10:15:56.754Z,95822
2022-11-30T10:17:04.384Z,95821
2022-11-30T10:18:13.041Z,95825
2022-11-30T10:19:21.713Z,95829
2022-11-30T10:20:30.368Z,95830
2022-11-30T10:21:40.045Z,95827
2022-11-30T10:22:47.745Z,95828
2022-11-30T10:23:57.472Z,95827
2022-11-30T10:25:11.610Z,95827
2022-11-30T10:26:16.756Z,95828
2022-11-30T10:27:25.410Z,95826
2022-11-30T10:28:49.531Z,95825
2022-11-30T10:29:44.851Z,95829
2022-11-30T10:30:54.586Z,95825
2022-11-30T10:32:02.180Z,95830
2022-11-30T10:33:11.839Z,95824
2022-11-30T10:34:21.569Z,95825
2022-11-30T10:35:29.216Z,95819
2022-11-30T10:36:37.885Z,95825
2022-11-30T10:37:46.562Z,95824
2022-11-30T10:38:55.216Z,95822
2022-11-30T10:40:04.944Z,95818
2022-11-30T10:41:13.605Z,95817
2022-11-30T10:42:23.325Z,95820
2022-11-30T10:43:33.014Z,95821
2022-11-30T10:44:41.662Z,95822
2022-11-30T10:45:51.488Z,95816
2022-11-30T10:47:00.083Z,95815
2022-11-30T10:48:09.725Z,95817
2022-11-30T10:49:19.403Z,95819
2022-11-30T10:50:27.048Z,95817
2022-11-30T10:51:35.764Z,95817
2022-11-30T10:52:45.430Z,95809
2022-11-30T10:53:53.377Z,95812
2022-11-30T10:55:05.023Z,95808
2022-11-30T10:56:12.763Z,95804
2022-11-30T10:57:21.407Z,95806
2022-11-30T10:58:31.087Z,95808
2022-11-30T10:59:39.752Z,95803
2022-11-30T11:00:49.422Z,95790
2022-11-30T11:01:59.164Z,95802
2022-11-30T11:03:08.989Z,95797
2022-11-30T11:04:18.690Z,95797
2022-11-30T11:05:28.295Z,95798
2022-11-30T11:06:36.991Z,95791
2022-11-30T11:07:45.705Z,95793
2022-11-30T11:08:54.330Z,95791
2022-11-30T11:10:04.002Z,95795
2022-11-30T11:11:13.685Z,95791
2022-11-30T11:12:23.366Z,95790
2022-11-30T11:13:33.002Z,95792
2022-11-30T11:14:40.708Z,95792
2022-11-30T11:15:49.402Z,95796
2022-11-30T11:16:59.042Z,95796
2022-11-30T11:18:07.696Z,95797
2022-11-30T11:19:17.371Z,95798
2022-11-30T11:20:26.074Z,95797
2022-11-30T11:21:34.765Z,95801
2022-11-30T11:22:44.431Z,95800
2022-11-30T11:23:53.121Z,95798
2022-11-30T11:25:02.796Z,95797
2022-11-30T11:26:11.488Z,95796
2022-11-30T11:27:20.154Z,95795
2022-11-30T11:28:29.861Z,95797
2022-11-30T11:29:38.497Z,95792
2022-11-30T11:30:47.259Z,95795
2022-11-30T11:31:57.023Z,95792
2022-11-30T11:33:06.692Z,95787
2022-11-30T11:34:15.360Z,95790
2022-11-30T11:35:24.031Z,95790
2022-11-30T11:36:32.704Z,95795
2022-11-30T11:37:42.403Z,95792
2022-11-30T11:38:51.070Z,95794
2022-11-30T11:40:00.749Z,95800
2022-11-30T11:41:10.411Z,95800
2022-11-30T11:42:21.879Z,95794
2022-11-30T11:43:26.795Z,95795
2022-11-30T11:44:35.481Z,95798
2022-11-30T11:45:45.148Z,95797
2022-11-30T11:46:54.836Z,95790
2022-11-30T11:48:03.467Z,95791
2022-11-30T11:49:13.153Z,95789
2022-11-30T11:50:37.279Z,95791
2022-11-30T11:51:33.460Z,95786
2022-11-30T11:52:42.119Z,95787
2022-11-30T11:53:53.509Z,95790
2022-11-30T11:54:59.446Z,95787
2022-11-30T11:56:09.124Z,95787
2022-11-30T11:57:16.798Z,95785
2022-11-30T11:58:24.464Z,95778
2022-11-30T11:59:34.159Z,95784
2022-11-30T12:00:43.936Z,95784
2022-11-30T12:01:53.614Z,95783
2022-11-30T12:03:02.311Z,95785
2022-11-30T12:04:10.988Z,95785
2022-11-30T12:05:20.649Z,95788
2022-11-30T12:06:30.489Z,95789
2022-11-30T12:07:40.177Z,95785
2022-11-30T12:08:49.843Z,95784
2022-11-30T12:09:59.513Z,95788
2022-11-30T12:11:10.186Z,95785
2022-11-30T12:12:19.727Z,95785
2022-11-30T12:13:28.378Z,95785
2022-11-30T12:14:37.055Z,95783
2022-11-30T12:15:44.739Z,95788
2022-11-30T12:16:54.401Z,95785
2022-11-30T12:18:06.614Z,95783
2022-11-30T12:19:14.726Z,95785
2022-11-30T12:20:23.391Z,95779
2022-11-30T12:21:33.076Z,95782
2022-11-30T12:22:42.736Z,95784
2022-11-30T12:23:52.423Z,95788
2022-11-30T12:25:05.623Z,95785
2022-11-30T12:26:09.740Z,95790
2022-11-30T12:27:19.412Z,95786
2022-11-30T12:28:27.089Z,95784
2022-11-30T12:29:35.808Z,95788
2022-11-30T12:30:44.487Z,95788
2022-11-30T12:31:54.154Z,95786
2022-11-30T12:33:03.880Z,95784
2022-11-30T12:34:12.519Z,95781
2022-11-30T12:35:21.299Z,95781
2022-11-30T12:36:30.990Z,95781
2022-11-30T12:37:42.996Z,95781
2022-11-30T12:38:49.304Z,95778
2022-11-30T12:39:57.974Z,95781
2022-11-30T12:41:06.661Z,95786
2022-11-30T12:42:16.327Z,95783
2022-11-30T12:43:25.997Z,95783
2022-11-30T12:44:41.763Z,95782
2022-11-30T12:45:45.321Z,95782
2022-11-30T12:46:54.105Z,95781
2022-11-30T12:48:03.734Z,95782
2022-11-30T12:49:12.541Z,95784
2022-11-30T12:50:21.053Z,95787
2022-11-30T12:51:30.739Z,95785
2022-11-30T12:52:38.554Z,95790
2022-11-30T12:53:48.240Z,95785
2022-11-30T12:54:57.927Z,95787
2022-11-30T12:56:06.611Z,95784
2022-11-30T12:57:16.288Z,95786
2022-11-30T12:58:25.969Z,95784
2022-11-30T12:59:34.647Z,95786
2022-11-30T13:00:44.564Z,95786
2022-11-30T13:01:53.064Z,95787
2022-11-30T13:03:02.691Z,95787
2022-11-30T13:04:10.439Z,95784
2022-11-30T13:05:20.131Z,95786
2022-11-30T13:06:29.809Z,95782
2022-11-30T13:07:37.539Z,95783
2022-11-30T13:08:46.207Z,95782
2022-11-30T13:09:55.047Z,95780
2022-11-30T13:11:03.712Z,95780
2022-11-30T13:12:13.380Z,95777
2022-11-30T13:13:23.048Z,95776
2022-11-30T13:14:31.708Z,95778
2022-11-30T13:15:41.465Z,95779
2022-11-30T13:16:50.087Z,95777
2022-11-30T13:17:58.748Z,95775
2022-11-30T13:19:08.426Z,95780
2022-11-30T13:20:18.085Z,95776
2022-11-30T13:21:27.822Z,95778
2022-11-30T13:22:37.500Z,95773
2022-11-30T13:23:46.150Z,95779
2022-11-30T13:24:55.817Z,95775
2022-11-30T13:26:08.828Z,95780
2022-11-30T13:27:13.147Z,95778
2022-11-30T13:28:21.820Z,95780
2022-11-30T13:29:31.607Z,95781
2022-11-30T13:30:41.230Z,95779
2022-11-30T13:31:49.983Z,95780
2022-11-30T13:32:59.609Z,95776
2022-11-30T13:34:09.288Z,95777
2022-11-30T13:35:17.964Z,95781
2022-11-30T13:36:26.672Z,95777
2022-11-30T13:37:36.358Z,95783
2022-11-30T13:38:46.234Z,95783
2022-11-30T13:39:55.918Z,95780
2022-11-30T13:41:03.608Z,95775
2022-11-30T13:42:13.297Z,95780
2022-11-30T13:43:22.998Z,95774
2022-11-30T13:44:30.701Z,95779
2022-11-30T13:45:39.402Z,95780
2022-11-30T13:46:48.066Z,95786
2022-11-30T13:47:57.748Z,95783
2022-11-30T13:49:06.428Z,95784
2022-11-30T13:50:15.083Z,95790
2022-11-30T13:51:24.745Z,95789
2022-11-30T13:52:34.441Z,95790
2022-11-30T13:53:42.126Z,95789
2022-11-30T13:54:51.252Z,95790
2022-11-30T13:55:59.505Z,95792
2022-11-30T13:57:09.186Z,95794
2022-11-30T13:58:18.875Z,95792
2022-11-30T13:59:27.562Z,95796
2022-11-30T14:00:37.274Z,95792
2022-11-30T14:01:46.963Z,95791
2022-11-30T14:02:54.619Z,95787
2022-11-30T14:04:03.285Z,95788
2022-11-30T14:05:11.957Z,95793
2022-11-30T14:06:23.294Z,95793
2022-11-30T14:07:31.308Z,95796
2022-11-30T14:08:40.996Z,95797
2022-11-30T14:09:50.017Z,95797
2022-11-30T14:10:59.400Z,95799
2022-11-30T14:12:08.064Z,95792
2022-11-30T14:13:17.802Z,95799
2022-11-30T14:14:26.481Z,95800
2022-11-30T14:15:36.146Z,95799
2022-11-30T14:16:45.829Z,95803
2022-11-30T14:17:53.467Z,95802
2022-11-30T14:19:03.153Z,95802
2022-11-30T14:20:12.816Z,95801
2022-11-30T14:21:20.501Z,95800
2022-11-30T14:22:30.170Z,95802
2022-11-30T14:23:38.839Z,95800
2022-11-30T14:24:47.535Z,95799
2022-11-30T14:25:57.244Z,95802
2022-11-30T14:27:06.878Z,95805
2022-11-30T14:28:15.586Z,95799
2022-11-30T14:29:25.262Z,95801
2022-11-30T14:30:33.955Z,95798
2022-11-30T14:31:42.637Z,95798
2022-11-30T14:32:51.315Z,95797
2022-11-30T14:33:59.979Z,95799
2022-11-30T14:35:09.653Z,95798
2022-11-30T14:36:18.369Z,95798
2022-11-30T14:37:28.048Z,95795
2022-11-30T14:38:37.730Z,95792
2022-11-30T14:39:46.783Z,95795
2022-11-30T14:40:55.075Z,95791
2022-11-30T14:42:03.916Z,95795
2022-11-30T14:43:12.557Z,95801
2022-11-30T14:44:22.230Z,95800
2022-11-30T14:45:30.902Z,95798
2022-11-30T14:46:39.659Z,95803
2022-11-30T14:47:49.286Z,95802
2022-11-30T14:48:57.950Z,95802
2022-11-30T14:50:07.617Z,95805